createdAt,value
2023-05-13T00:00:29.828Z,95768.25
2023-05-13T00:02:57.954Z,95761.88
2023-05-13T00:05:28.074Z,95746.31
2023-05-13T00:07:56.431Z,95758.41
2023-05-13T00:10:25.737Z,95760.28
2023-05-13T00:12:53.831Z,95772.38
2023-05-13T00:15:23.414Z,95771.38
2023-05-13T00:17:51.457Z,95785.06
2023-05-13T00:20:19.970Z,95772.78
2023-05-13T00:22:48.307Z,95778.94
2023-05-13T00:25:16.423Z,95785.88
2023-05-13T00:27:44.476Z,95774.06
2023-05-13T00:30:13.041Z,95772.19
2023-05-13T00:32:43.353Z,95792.31
2023-05-13T00:35:11.413Z,95791.03
2023-05-13T00:37:39.382Z,95799.75
2023-05-13T00:40:17.332Z,95796.81
2023-05-13T00:42:45.271Z,95791.94
2023-05-13T00:45:13.254Z,95796.19
2023-05-13T00:47:43.217Z,95786.66
2023-05-13T00:50:12.996Z,95784.88
2023-05-13T00:52:42.185Z,95783.88
2023-05-13T00:55:11.460Z,95787.06
2023-05-13T00:57:40.210Z,95789.91
2023-05-13T01:00:10.562Z,95781.22
2023-05-13T01:02:58.959Z,95775.22
2023-05-13T01:05:32.844Z,95769.03
2023-05-13T01:08:08.617Z,95768.75
2023-05-13T01:10:43.901Z,95771.50
2023-05-13T01:13:14.795Z,95780.13
2023-05-13T01:15:49.137Z,95781.00
2023-05-13T01:18:21.851Z,95782.06
2023-05-13T01:20:50.029Z,95789.75
2023-05-13T01:23:19.329Z,95800.97
2023-05-13T01:25:47.887Z,95800.25
2023-05-13T01:28:16.012Z,95801.97
2023-05-13T01:30:44.088Z,95804.56
2023-05-13T01:33:12.729Z,95807.09
2023-05-13T01:35:40.828Z,95804.69
2023-05-13T01:38:11.314Z,95805.56
2023-05-13T01:40:41.526Z,95799.88
2023-05-13T01:43:09.724Z,95801.47
2023-05-13T01:45:38.288Z,95801.47
2023-05-13T01:48:06.809Z,95795.81
2023-05-13T01:50:35.020Z,95796.13
2023-05-13T01:53:02.950Z,95790.38
2023-05-13T01:55:31.094Z,95799.28
2023-05-13T01:58:00.485Z,95790.47
2023-05-13T02:00:28.659Z,95789.22
2023-05-13T02:02:56.840Z,95790.34
2023-05-13T02:05:24.839Z,95799.94
2023-05-13T02:07:52.784Z,95794.81
2023-05-13T02:10:20.904Z,95796.13
2023-05-13T02:12:49.153Z,95786.63
2023-05-13T02:15:18.633Z,95796.97
2023-05-13T02:17:46.674Z,95796.88
2023-05-13T02:20:16.003Z,95796.00
2023-05-13T02:22:43.983Z,95800.38
2023-05-13T02:25:12.290Z,95800.91
2023-05-13T02:27:40.574Z,95805.03
2023-05-13T02:30:09.480Z,95804.22
2023-05-13T02:32:42.791Z,95808.84
2023-05-13T02:35:11.817Z,95807.03
2023-05-13T02:37:39.826Z,95811.53
2023-05-13T02:40:09.101Z,95816.00
2023-05-13T02:42:37.125Z,95817.53
2023-05-13T02:45:05.475Z,95813.06
2023-05-13T02:47:33.853Z,95806.03
2023-05-13T02:50:05.892Z,95801.41
2023-05-13T02:52:35.591Z,95800.59
2023-05-13T02:55:03.699Z,95803.03
2023-05-13T02:57:31.669Z,95817.47
2023-05-13T02:59:59.775Z,95828.31
2023-05-13T03:02:28.217Z,95825.50
2023-05-13T03:04:56.638Z,95822.84
2023-05-13T03:07:26.517Z,95832.19
2023-05-13T03:09:54.449Z,95833.31
2023-05-13T03:12:22.511Z,95827.44
2023-05-13T03:14:50.495Z,95827.69
2023-05-13T03:17:18.882Z,95836.56
2023-05-13T03:19:46.879Z,95841.78
2023-05-13T03:22:14.885Z,95841.69
2023-05-13T03:24:44.550Z,95838.44
2023-05-13T03:27:14.180Z,95827.00
2023-05-13T03:29:45.327Z,95842.81
2023-05-13T03:32:19.381Z,95843.00
2023-05-13T03:34:53.156Z,95847.72
2023-05-13T03:37:21.384Z,95839.75
2023-05-13T03:39:51.021Z,95850.41
2023-05-13T03:42:19.260Z,95847.00
2023-05-13T03:44:49.855Z,95845.69
2023-05-13T03:47:18.218Z,95846.59
2023-05-13T03:49:48.115Z,95842.28
2023-05-13T03:52:16.735Z,95849.72
2023-05-13T03:54:45.592Z,95848.81
2023-05-13T03:57:15.022Z,95843.19
2023-05-13T03:59:43.325Z,95862.50
2023-05-13T04:02:11.656Z,95870.97
2023-05-13T04:04:44.667Z,95874.75
2023-05-13T04:07:16.134Z,95872.56
2023-05-13T04:09:44.083Z,95859.94
2023-05-13T04:12:15.876Z,95879.63
2023-05-13T04:14:45.419Z,95884.78
2023-05-13T04:17:13.445Z,95858.53
2023-05-13T04:19:41.613Z,95892.53
2023-05-13T04:22:09.632Z,95887.19
2023-05-13T04:24:37.530Z,95893.03
2023-05-13T04:27:05.978Z,95885.06
2023-05-13T04:29:33.981Z,95895.81
2023-05-13T04:32:03.360Z,95899.38
2023-05-13T04:34:31.757Z,95888.25
2023-05-13T04:36:59.817Z,95898.88
2023-05-13T04:39:27.800Z,95902.34
2023-05-13T04:41:58.136Z,95919.56
2023-05-13T04:44:30.680Z,95909.78
2023-05-13T04:46:58.917Z,95904.78
2023-05-13T04:49:30.916Z,95891.84
2023-05-13T04:52:03.680Z,95898.69
2023-05-13T04:54:34.761Z,95903.88
2023-05-13T04:57:07.559Z,95897.47
2023-05-13T04:59:37.120Z,95896.56
2023-05-13T05:02:07.750Z,95897.94
2023-05-13T05:04:44.928Z,95889.91
2023-05-13T05:07:13.501Z,95883.31
2023-05-13T05:09:46.909Z,95891.16
2023-05-13T05:12:15.795Z,95887.63
2023-05-13T05:14:43.803Z,95895.03
2023-05-13T05:17:11.843Z,95902.72
2023-05-13T05:19:42.225Z,95895.78
2023-05-13T05:22:10.197Z,95879.47
2023-05-13T05:24:38.131Z,95882.88
2023-05-13T05:27:07.158Z,95893.56
2023-05-13T05:29:35.288Z,95884.81
2023-05-13T05:32:03.888Z,95867.00
2023-05-13T05:34:32.341Z,95886.81
2023-05-13T05:37:01.624Z,95890.44
2023-05-13T05:39:29.897Z,95869.94
2023-05-13T05:41:58.240Z,95882.19
2023-05-13T05:44:26.122Z,95855.16
2023-05-13T05:46:54.532Z,95886.09
2023-05-13T05:49:22.648Z,95863.06
2023-05-13T05:51:50.608Z,95884.50
2023-05-13T05:54:19.922Z,95823.56
2023-05-13T05:56:48.068Z,95884.56
2023-05-13T05:59:16.093Z,95887.31
2023-05-13T06:01:44.170Z,95877.72
2023-05-13T06:04:12.233Z,95870.94
2023-05-13T06:06:40.732Z,95882.50
2023-05-13T06:09:08.832Z,95829.94
2023-05-13T06:11:38.163Z,95884.88
2023-05-13T06:14:06.107Z,95859.34
2023-05-13T06:16:34.374Z,95873.69
2023-05-13T06:19:02.422Z,95887.25
2023-05-13T06:21:31.887Z,95903.84
2023-05-13T06:24:00.203Z,95886.44
2023-05-13T06:26:28.255Z,95893.31
2023-05-13T06:28:57.724Z,95892.16
2023-05-13T06:31:27.494Z,95895.94
2023-05-13T06:33:56.040Z,95876.44
2023-05-13T06:36:24.757Z,95903.03
2023-05-13T06:38:52.698Z,95900.31
2023-05-13T06:41:20.760Z,95900.84
2023-05-13T06:43:49.075Z,95907.84
2023-05-13T06:46:18.435Z,95894.41
2023-05-13T06:48:46.447Z,95901.59
2023-05-13T06:51:14.735Z,95891.44
2023-05-13T06:53:42.769Z,95817.31
2023-05-13T06:56:11.373Z,95903.47
2023-05-13T06:58:39.426Z,95919.56
2023-05-13T07:01:07.667Z,95902.06
2023-05-13T07:03:37.800Z,95853.94
2023-05-13T07:06:06.108Z,95885.69
2023-05-13T07:08:34.035Z,95909.19
2023-05-13T07:11:02.035Z,95909.88
2023-05-13T07:13:31.021Z,95921.38
2023-05-13T07:15:58.964Z,95919.28
2023-05-13T07:18:27.071Z,95903.44
2023-05-13T07:20:56.951Z,95916.25
2023-05-13T07:23:25.170Z,95933.25
2023-05-13T07:25:53.246Z,95903.28
2023-05-13T07:28:21.246Z,95932.63
2023-05-13T07:30:49.284Z,95929.19
2023-05-13T07:33:17.306Z,95925.81
2023-05-13T07:35:45.385Z,95919.78
2023-05-13T07:38:15.028Z,95921.84
2023-05-13T07:40:43.255Z,95897.09
2023-05-13T07:43:11.844Z,95917.56
2023-05-13T07:45:40.279Z,95908.38
2023-05-13T07:48:10.053Z,95910.28
2023-05-13T07:50:38.531Z,95900.53
2023-05-13T07:53:06.734Z,95918.53
2023-05-13T07:55:36.184Z,95894.56
2023-05-13T07:58:04.061Z,95923.63
2023-05-13T08:00:32.408Z,95917.91
2023-05-13T08:03:00.460Z,95920.75
2023-05-13T08:05:28.497Z,95891.78
2023-05-13T08:07:56.506Z,95884.53
2023-05-13T08:10:24.493Z,95908.31
2023-05-13T08:12:57.714Z,95877.56
2023-05-13T08:15:25.882Z,95910.75
2023-05-13T08:17:54.722Z,95882.81
2023-05-13T08:20:29.627Z,95880.22
2023-05-13T08:22:58.378Z,95900.63
2023-05-13T08:25:26.604Z,95898.97
2023-05-13T08:27:56.019Z,95900.69
2023-05-13T08:30:24.245Z,95878.63
2023-05-13T08:32:52.651Z,95898.56
2023-05-13T08:35:21.877Z,95906.13
2023-05-13T08:37:49.988Z,95883.56
2023-05-13T08:40:18.676Z,95886.75
2023-05-13T08:42:50.307Z,95889.84
2023-05-13T08:45:23.521Z,95848.34
2023-05-13T08:47:53.733Z,95888.34
2023-05-13T08:50:22.438Z,95867.28
2023-05-13T08:52:51.674Z,95872.44
2023-05-13T08:55:20.448Z,95835.09
2023-05-13T08:57:50.130Z,95815.50
2023-05-13T09:00:21.558Z,95872.00
2023-05-13T09:02:51.019Z,95866.63
2023-05-13T09:05:20.263Z,95857.22
2023-05-13T09:07:48.455Z,95854.53
2023-05-13T09:10:16.702Z,95829.78
2023-05-13T09:12:49.852Z,95853.00
2023-05-13T09:15:21.043Z,95843.47
2023-05-13T09:17:52.542Z,95804.94
2023-05-13T09:20:22.228Z,95845.41
2023-05-13T09:22:51.434Z,95856.38
2023-05-13T09:25:21.546Z,95855.28
2023-05-13T09:27:52.030Z,95821.53
2023-05-13T09:30:22.767Z,95806.97
2023-05-13T09:33:07.281Z,95849.66
2023-05-13T09:35:37.083Z,95819.50
2023-05-13T09:38:14.668Z,95842.28
2023-05-13T09:40:51.974Z,95816.34
2023-05-13T09:43:21.884Z,95855.53
2023-05-13T09:45:54.477Z,95836.78
2023-05-13T09:48:22.906Z,95843.84
2023-05-13T09:50:52.369Z,95824.16
2023-05-13T09:53:21.287Z,95829.63
2023-05-13T09:55:51.525Z,95841.78
2023-05-13T09:58:20.426Z,95830.41
2023-05-13T10:00:49.344Z,95816.28
2023-05-13T10:03:19.123Z,95802.03
2023-05-13T10:05:47.535Z,95784.91
2023-05-13T10:08:16.178Z,95762.97
2023-05-13T10:10:46.292Z,95821.47
2023-05-13T10:13:17.402Z,95825.00
2023-05-13T10:15:53.130Z,95829.72
2023-05-13T10:18:25.015Z,95824.22
2023-05-13T10:20:54.189Z,95797.69
2023-05-13T10:23:24.329Z,95818.88
2023-05-13T10:25:54.957Z,95812.47
2023-05-13T10:28:23.424Z,95812.34
2023-05-13T10:30:52.687Z,95822.34
2023-05-13T10:33:22.861Z,95805.75
2023-05-13T10:36:11.796Z,95809.31
2023-05-13T10:38:54.498Z,95806.75
2023-05-13T10:42:07.930Z,95799.38
2023-05-13T10:44:36.819Z,95779.06
2023-05-13T10:47:05.112Z,95809.91
2023-05-13T10:49:36.531Z,95815.56
2023-05-13T10:52:09.506Z,95795.94
2023-05-13T10:54:40.550Z,95789.66
2023-05-13T10:57:08.924Z,95766.03
2023-05-13T10:59:38.756Z,95815.97
2023-05-13T11:02:22.654Z,95688.25
2023-05-13T11:05:02.798Z,95824.59
2023-05-13T11:07:31.009Z,95813.34
2023-05-13T11:10:01.200Z,95713.25
2023-05-13T11:12:29.302Z,95809.44
2023-05-13T11:14:57.542Z,95768.72
2023-05-13T11:17:25.999Z,95796.13
2023-05-13T11:19:54.445Z,95792.47
2023-05-13T11:22:25.095Z,95802.91
2023-05-13T11:25:09.169Z,95793.81
2023-05-13T11:27:40.723Z,95785.00
2023-05-13T11:30:22.613Z,95778.38
2023-05-13T11:32:56.590Z,95786.59
2023-05-13T11:35:27.158Z,95729.41
2023-05-13T11:37:59.807Z,95770.50
2023-05-13T11:40:30.651Z,95768.19
2023-05-13T11:43:00.019Z,95764.09
2023-05-13T11:45:29.304Z,95757.25
2023-05-13T11:47:57.663Z,95757.19
2023-05-13T11:50:27.662Z,95742.44
2023-05-13T11:52:58.308Z,95762.06
2023-05-13T11:55:27.378Z,95758.50
2023-05-13T11:57:55.878Z,95751.00
2023-05-13T12:00:27.461Z,95749.28
2023-05-13T12:02:56.505Z,95710.09
2023-05-13T12:05:25.355Z,95738.13
2023-05-13T12:07:57.498Z,95740.47
2023-05-13T12:10:27.220Z,95739.41
2023-05-13T12:12:55.502Z,95736.72
2023-05-13T12:15:24.248Z,95743.13
2023-05-13T12:17:53.369Z,95739.16
2023-05-13T12:20:22.654Z,95743.94
2023-05-13T12:22:57.008Z,95742.91
2023-05-13T12:25:46.731Z,95725.78
2023-05-13T12:28:17.517Z,95720.19
2023-05-13T12:30:51.747Z,95690.38
2023-05-13T12:33:22.156Z,95735.88
2023-05-13T12:35:52.142Z,95706.78
2023-05-13T12:38:21.769Z,95717.31
2023-05-13T12:40:52.514Z,95670.66
2023-05-13T12:43:21.539Z,95713.97
2023-05-13T12:45:55.520Z,95715.19
2023-05-13T12:48:27.067Z,95711.34
2023-05-13T12:50:56.546Z,95709.75
2023-05-13T12:53:24.601Z,95692.66
2023-05-13T12:55:54.057Z,95701.75
2023-05-13T12:58:21.982Z,95695.50
2023-05-13T13:00:49.995Z,95709.22
2023-05-13T13:03:18.164Z,95715.03
2023-05-13T13:05:46.854Z,95714.25
2023-05-13T13:08:14.888Z,95674.63
2023-05-13T13:10:42.860Z,95704.47
2023-05-13T13:13:12.222Z,95711.09
2023-05-13T13:15:40.557Z,95701.22
2023-05-13T13:18:08.966Z,95697.28
2023-05-13T13:20:37.731Z,95700.00
2023-05-13T13:23:05.765Z,95645.75
2023-05-13T13:25:33.753Z,95708.97
2023-05-13T13:28:01.998Z,95692.03
2023-05-13T13:30:31.993Z,95692.84
2023-05-13T13:33:00.120Z,95654.22
2023-05-13T13:35:28.764Z,95686.09
2023-05-13T13:37:56.703Z,95671.66
2023-05-13T13:40:24.914Z,95678.16
2023-05-13T13:42:52.932Z,95681.31
2023-05-13T13:45:24.185Z,95680.56
2023-05-13T13:47:53.556Z,95657.03
2023-05-13T13:50:22.042Z,95629.56
2023-05-13T13:52:52.393Z,95678.97
2023-05-13T13:55:20.803Z,95659.78
2023-05-13T13:57:48.852Z,95683.28
2023-05-13T14:00:18.096Z,95651.53
2023-05-13T14:02:46.162Z,95684.88
2023-05-13T14:05:16.063Z,95587.97
2023-05-13T14:07:44.169Z,95665.66
2023-05-13T14:10:12.242Z,95682.13
2023-05-13T14:12:40.289Z,95679.78
2023-05-13T14:15:09.422Z,95674.28
2023-05-13T14:17:37.477Z,95686.44
2023-05-13T14:20:06.530Z,95669.16
2023-05-13T14:22:36.192Z,95671.16
2023-05-13T14:25:04.243Z,95680.53
2023-05-13T14:27:34.097Z,95678.94
2023-05-13T14:30:04.489Z,95676.53
2023-05-13T14:32:33.002Z,95677.38
2023-05-13T14:35:01.072Z,95645.91
2023-05-13T14:37:29.000Z,95653.00
2023-05-13T14:39:58.607Z,95662.44
2023-05-13T14:42:26.673Z,95664.00
2023-05-13T14:44:54.674Z,95642.03
2023-05-13T14:47:22.587Z,95657.00
2023-05-13T14:49:50.656Z,95631.84
2023-05-13T14:52:18.661Z,95658.50
2023-05-13T14:54:46.677Z,95613.78
2023-05-13T14:57:16.149Z,95645.13
2023-05-13T14:59:44.107Z,95639.59
2023-05-13T15:02:13.985Z,95656.00
2023-05-13T15:04:42.056Z,95661.50
2023-05-13T15:07:10.195Z,95659.19
2023-05-13T15:09:38.218Z,95663.06
2023-05-13T15:12:06.971Z,95636.34
2023-05-13T15:14:36.759Z,95674.38
2023-05-13T15:17:06.170Z,95671.66
2023-05-13T15:19:34.570Z,95670.16
2023-05-13T15:22:02.574Z,95670.91
2023-05-13T15:24:30.584Z,95657.19
2023-05-13T15:26:58.505Z,95652.13
2023-05-13T15:29:26.437Z,95648.91
2023-05-13T15:31:55.857Z,95663.28
2023-05-13T15:34:24.172Z,95651.91
2023-05-13T15:36:52.114Z,95635.31
2023-05-13T15:39:20.389Z,95603.44
2023-05-13T15:41:49.280Z,95661.84
2023-05-13T15:44:17.258Z,95681.31
2023-05-13T15:46:46.733Z,95633.28
2023-05-13T15:49:17.740Z,95689.13
2023-05-13T15:51:46.046Z,95689.75
2023-05-13T15:54:14.278Z,95693.00
2023-05-13T15:56:43.518Z,95700.81
2023-05-13T15:59:11.622Z,95689.06
2023-05-13T16:01:42.032Z,95690.59
2023-05-13T16:04:11.138Z,95694.44
2023-05-13T16:06:40.580Z,95688.91
2023-05-13T16:09:08.715Z,95686.19
2023-05-13T16:11:36.674Z,95691.59
2023-05-13T16:14:07.538Z,95636.88
2023-05-13T16:16:35.672Z,95696.16
2023-05-13T16:19:04.122Z,95689.31
2023-05-13T16:21:32.565Z,95687.06
2023-05-13T16:24:01.905Z,95706.56
2023-05-13T16:26:30.410Z,95708.88
2023-05-13T16:28:58.403Z,95674.44
2023-05-13T16:31:26.466Z,95714.97
2023-05-13T16:33:56.155Z,95684.25
2023-05-13T16:36:26.872Z,95700.31
2023-05-13T16:38:54.816Z,95719.59
2023-05-13T16:41:26.852Z,95709.00
2023-05-13T16:43:54.864Z,95706.16
2023-05-13T16:46:23.438Z,95713.59
2023-05-13T16:48:51.563Z,95710.44
2023-05-13T16:51:22.147Z,95711.63
2023-05-13T16:53:50.135Z,95718.63
2023-05-13T16:56:18.222Z,95663.78
2023-05-13T16:58:49.010Z,95706.44
2023-05-13T17:01:16.998Z,95693.59
2023-05-13T17:03:46.054Z,95735.00
2023-05-13T17:06:14.217Z,95707.81
2023-05-13T17:08:42.219Z,95703.31
2023-05-13T17:11:16.093Z,95730.75
2023-05-13T17:13:44.248Z,95688.03
2023-05-13T17:16:13.551Z,95689.53
2023-05-13T17:18:41.839Z,95734.75
2023-05-13T17:21:10.594Z,95723.91
2023-05-13T17:23:38.845Z,95735.06
2023-05-13T17:26:08.054Z,95740.84
2023-05-13T17:28:36.283Z,95738.47
2023-05-13T17:31:05.106Z,95742.25
2023-05-13T17:33:35.493Z,95716.44
2023-05-13T17:36:03.585Z,95752.97
2023-05-13T17:38:31.605Z,95754.84
2023-05-13T17:40:59.552Z,95767.19
2023-05-13T17:43:27.575Z,95768.66
2023-05-13T17:45:56.602Z,95768.88
2023-05-13T17:48:24.686Z,95772.97
2023-05-13T17:50:54.176Z,95741.44
2023-05-13T17:53:23.443Z,95761.03
2023-05-13T17:55:51.812Z,95768.28
2023-05-13T17:58:19.828Z,95772.28
2023-05-13T18:00:48.324Z,95772.56
2023-05-13T18:03:16.344Z,95769.25
2023-05-13T18:05:44.495Z,95742.78
2023-05-13T18:08:13.853Z,95752.88
2023-05-13T18:10:41.859Z,95763.91
2023-05-13T18:13:09.977Z,95777.91
2023-05-13T18:15:38.145Z,95768.50
2023-05-13T18:18:06.351Z,95718.22
2023-05-13T18:20:34.865Z,95767.19
2023-05-13T18:23:02.853Z,95782.34
2023-05-13T18:25:33.561Z,95778.38
2023-05-13T18:28:04.282Z,95780.66
2023-05-13T18:30:32.615Z,95780.22
2023-05-13T18:33:01.077Z,95771.19
2023-05-13T18:35:32.728Z,95770.78
2023-05-13T18:38:01.118Z,95764.09
2023-05-13T18:40:29.143Z,95773.34
2023-05-13T18:42:58.597Z,95751.25
2023-05-13T18:45:26.968Z,95776.22
2023-05-13T18:47:55.069Z,95776.59
2023-05-13T18:50:23.388Z,95782.03
2023-05-13T18:52:52.890Z,95756.94
2023-05-13T18:55:21.075Z,95698.84
2023-05-13T18:57:49.146Z,95767.41
2023-05-13T19:00:26.071Z,95770.56
2023-05-13T19:03:01.598Z,95770.56
2023-05-13T19:05:29.855Z,95765.13
2023-05-13T19:07:58.131Z,95760.31
2023-05-13T19:10:26.230Z,95769.44
2023-05-13T19:12:54.173Z,95760.41
2023-05-13T19:15:25.218Z,95742.53
2023-05-13T19:17:53.864Z,95778.47
2023-05-13T19:20:22.060Z,95773.13
2023-05-13T19:22:50.292Z,95793.75
2023-05-13T19:25:18.312Z,95792.84
2023-05-13T19:27:48.158Z,95791.97
2023-05-13T19:30:16.269Z,95797.28
2023-05-13T19:32:46.794Z,95773.69
2023-05-13T19:35:15.110Z,95786.16
2023-05-13T19:37:43.183Z,95749.47
2023-05-13T19:40:12.096Z,95787.53
2023-05-13T19:42:40.482Z,95802.78
2023-05-13T19:45:10.758Z,95805.44
2023-05-13T19:47:39.599Z,95789.97
2023-05-13T19:50:09.878Z,95807.72
2023-05-13T19:52:39.296Z,95800.69
2023-05-13T19:55:08.363Z,95802.59
2023-05-13T19:57:37.255Z,95793.13
2023-05-13T20:00:07.727Z,95801.97
2023-05-13T20:02:35.713Z,95801.91
2023-05-13T20:05:03.956Z,95804.19
2023-05-13T20:07:33.586Z,95802.41
2023-05-13T20:10:01.560Z,95810.53
2023-05-13T20:12:30.132Z,95812.38
2023-05-13T20:14:59.404Z,95802.19
2023-05-13T20:17:27.632Z,95767.00
2023-05-13T20:19:56.491Z,95789.72
2023-05-13T20:22:24.601Z,95798.06
2023-05-13T20:24:54.471Z,95786.44
2023-05-13T20:27:22.600Z,95729.09
2023-05-13T20:29:51.464Z,95800.03
2023-05-13T20:32:24.818Z,95789.94
2023-05-13T20:34:54.736Z,95797.66
2023-05-13T20:37:23.928Z,95795.75
2023-05-13T20:39:54.144Z,95800.72
2023-05-13T20:42:22.915Z,95790.53
2023-05-13T20:44:51.085Z,95777.28
2023-05-13T20:47:19.200Z,95790.19
2023-05-13T20:49:47.400Z,95781.59
2023-05-13T20:52:15.523Z,95786.59
2023-05-13T20:54:43.834Z,95795.88
2023-05-13T20:57:13.499Z,95763.09
2023-05-13T20:59:43.976Z,95731.38
2023-05-13T21:02:13.362Z,95698.53
2023-05-13T21:04:41.475Z,95787.84
2023-05-13T21:07:09.815Z,95782.88
2023-05-13T21:09:38.199Z,95765.94
2023-05-13T21:12:07.149Z,95787.19
2023-05-13T21:14:39.370Z,95791.22
2023-05-13T21:17:07.957Z,95794.38
2023-05-13T21:19:39.902Z,95744.47
2023-05-13T21:22:08.121Z,95759.31
2023-05-13T21:24:37.353Z,95808.19
2023-05-13T21:27:06.048Z,95748.81
2023-05-13T21:29:34.234Z,95795.13
2023-05-13T21:32:03.927Z,95807.22
2023-05-13T21:34:32.432Z,95815.00
2023-05-13T21:37:01.990Z,95777.63
2023-05-13T21:39:31.386Z,95815.69
2023-05-13T21:42:00.968Z,95805.50
2023-05-13T21:44:33.322Z,95818.09
2023-05-13T21:47:02.308Z,95778.44
2023-05-13T21:49:37.587Z,95800.38
2023-05-13T21:52:06.004Z,95768.63
2023-05-13T21:54:34.702Z,95786.09
2023-05-13T21:57:06.370Z,95585.88
2023-05-13T21:59:36.770Z,95788.94
2023-05-13T22:02:05.198Z,95794.59
2023-05-13T22:04:36.469Z,95802.16
2023-05-13T22:07:04.842Z,95797.19
2023-05-13T22:09:32.831Z,95801.16
2023-05-13T22:12:00.956Z,95785.41
2023-05-13T22:14:28.956Z,95792.44
2023-05-13T22:17:08.544Z,95784.19
2023-05-13T22:19:39.682Z,95781.22
2023-05-13T22:22:07.680Z,95772.44
2023-05-13T22:24:38.211Z,95785.19
2023-05-13T22:27:06.588Z,95773.88
2023-05-13T22:29:35.793Z,95779.41
2023-05-13T22:32:03.900Z,95786.06
2023-05-13T22:34:31.989Z,95774.22
2023-05-13T22:37:02.683Z,95776.38
2023-05-13T22:39:30.693Z,95760.19
2023-05-13T22:41:59.780Z,95755.94
2023-05-13T22:44:27.830Z,95781.22
2023-05-13T22:46:56.851Z,95790.84
2023-05-13T22:49:24.939Z,95783.84
2023-05-13T22:51:52.930Z,95771.41
2023-05-13T22:54:24.043Z,95733.81
2023-05-13T22:56:51.998Z,95781.59
2023-05-13T22:59:21.389Z,95777.72
2023-05-13T23:01:49.427Z,95786.78
2023-05-13T23:04:17.556Z,95788.47
2023-05-13T23:06:45.560Z,95778.03
2023-05-13T23:09:13.494Z,95765.75
2023-05-13T23:11:42.864Z,95775.44
2023-05-13T23:14:10.816Z,95783.56
2023-05-13T23:16:38.825Z,95772.25
2023-05-13T23:19:06.954Z,95749.47
2023-05-13T23:21:38.053Z,95770.94
2023-05-13T23:24:08.949Z,95767.00
2023-05-13T23:26:36.846Z,95760.41
2023-05-13T23:29:06.251Z,95718.06
2023-05-13T23:31:34.398Z,95757.16
2023-05-13T23:34:03.229Z,95754.00
2023-05-13T23:36:31.159Z,95750.25
2023-05-13T23:38:59.034Z,95757.59
2023-05-13T23:41:27.040Z,95761.66
2023-05-13T23:43:55.083Z,95762.69
2023-05-13T23:46:24.617Z,95759.53
2023-05-13T23:48:52.655Z,95740.56
2023-05-13T23:51:21.005Z,95739.13
2023-05-13T23:53:49.061Z,95737.78
2023-05-13T23:56:17.059Z,95739.00
2023-05-13T23:58:45.173Z,95731.56
